Time;durP1;ratioP1;P1;durP2;ratioP2;P2;SDS_P1;SDS_P2;PMS_P1;PMS_P2;Temp;Humidity;BMP_temperature;BMP_pressure;BME280_temperature;BME280_humidity;BME280_pressure;Samples;Min_cycle;Max_cycle;Signal;HPM_P1;HPM_P2
2022/12/25 00:00:30;;;;;;;51.28;23.75;;;6.50;99.90;;;;;;5088684;28;20063;-59
2022/12/25 00:02:56;;;;;;;55.45;23.35;;;6.50;99.90;;;;;;5070431;28;20078;-61
2022/12/25 00:05:22;;;;;;;64.18;31.52;;;6.50;99.90;;;;;;5086992;28;20075;-61
2022/12/25 00:07:48;;;;;;;57.00;25.67;;;6.40;99.90;;;;;;5085287;28;20056;-62
2022/12/25 00:10:13;;;;;;;53.47;25.83;;;6.50;99.90;;;;;;5065296;28;20471;-61
2022/12/25 00:12:39;;;;;;;46.00;22.27;;;6.40;99.90;;;;;;5088127;28;20039;-61
2022/12/25 00:15:05;;;;;;;54.45;25.40;;;6.30;99.90;;;;;;5087769;28;20064;-59
2022/12/25 00:17:31;;;;;;;56.55;26.90;;;6.30;99.90;;;;;;5085276;28;20155;-59
2022/12/25 00:19:56;;;;;;;55.08;23.70;;;6.50;99.90;;;;;;5087018;28;20040;-59
2022/12/25 00:22:22;;;;;;;54.70;24.48;;;6.50;99.90;;;;;;5087802;28;20044;-58
2022/12/25 00:24:48;;;;;;;57.72;21.90;;;6.30;99.90;;;;;;5084512;28;20040;-59
2022/12/25 00:27:14;;;;;;;51.35;21.42;;;6.40;99.90;;;;;;5082748;28;20044;-60
2022/12/25 00:29:39;;;;;;;42.85;19.48;;;6.40;99.90;;;;;;5084908;28;20079;-57
2022/12/25 00:32:05;;;;;;;49.90;20.75;;;6.40;99.90;;;;;;5087291;28;20037;-57
2022/12/25 00:34:30;;;;;;;50.88;20.50;;;6.30;99.90;;;;;;5088456;28;20031;-57
2022/12/25 00:36:56;;;;;;;57.50;21.05;;;6.50;99.90;;;;;;5087663;28;20437;-60
2022/12/25 00:39:22;;;;;;;52.22;19.77;;;6.40;99.90;;;;;;5081517;28;20051;-62
2022/12/25 00:44:31;;;;;;;52.23;20.90;;;6.40;99.90;;;;;;5087217;28;20051;-59
2022/12/25 00:46:57;;;;;;;47.10;18.33;;;6.50;99.90;;;;;;5085436;28;20345;-61
2022/12/25 00:49:23;;;;;;;47.63;17.52;;;6.40;99.90;;;;;;5084061;28;20036;-61
2022/12/25 00:51:49;;;;;;;53.38;18.88;;;6.40;99.90;;;;;;5086174;28;20039;-60
2022/12/25 00:54:18;;;;;;;48.55;20.13;;;6.50;99.90;;;;;;5087933;28;20498;-60
2022/12/25 00:56:47;;;;;;;48.03;18.00;;;6.60;99.90;;;;;;5085945;28;20376;-60
2022/12/25 00:59:13;;;;;;;52.78;18.90;;;6.50;99.90;;;;;;5089236;28;20044;-60
2022/12/25 01:01:39;;;;;;;60.55;18.92;;;6.50;99.90;;;;;;5085824;28;20050;-60
2022/12/25 01:04:05;;;;;;;54.03;18.40;;;6.50;99.90;;;;;;5085243;28;20085;-59
2022/12/25 01:06:31;;;;;;;52.67;18.05;;;6.40;99.90;;;;;;5085752;28;20047;-58
2022/12/25 01:11:42;;;;;;;42.78;17.20;;;6.50;99.90;;;;;;5078440;28;20087;-61
2022/12/25 01:14:08;;;;;;;48.05;16.88;;;6.60;99.90;;;;;;5085159;28;20075;-60
2022/12/25 01:16:34;;;;;;;48.78;16.90;;;6.50;99.90;;;;;;5082731;28;20083;-60
2022/12/25 01:19:00;;;;;;;54.38;17.88;;;6.70;99.90;;;;;;5087333;28;20036;-60
2022/12/25 01:21:26;;;;;;;44.08;17.77;;;6.60;99.90;;;;;;5088964;28;20037;-61
2022/12/25 01:23:52;;;;;;;48.33;17.50;;;6.70;99.90;;;;;;5089181;28;20102;-61
2022/12/25 01:26:20;;;;;;;46.10;17.92;;;6.80;99.90;;;;;;5081271;28;20025;-62
2022/12/25 01:28:46;;;;;;;42.95;17.60;;;6.80;99.90;;;;;;5083208;28;20072;-61
2022/12/25 01:31:13;;;;;;;48.40;17.33;;;6.90;99.90;;;;;;5087800;28;20044;-61
2022/12/25 01:33:41;;;;;;;45.58;17.15;;;7.00;99.90;;;;;;5086016;28;20046;-59
2022/12/25 01:36:12;;;;;;;42.28;17.15;;;6.90;99.90;;;;;;5087522;28;20040;-60
2022/12/25 01:38:38;;;;;;;45.80;17.00;;;7.00;99.90;;;;;;5083448;28;20596;-59
2022/12/25 01:41:05;;;;;;;45.72;16.20;;;7.00;99.90;;;;;;5081979;28;20044;-61
2022/12/25 01:43:32;;;;;;;43.33;17.90;;;7.00;99.90;;;;;;5085012;28;20035;-59
2022/12/25 01:45:58;;;;;;;45.13;17.23;;;7.10;99.90;;;;;;5082815;28;20110;-60
2022/12/25 01:48:35;;;;;;;41.72;15.80;;;7.10;99.90;;;;;;5081439;28;20097;-59
2022/12/25 01:51:05;;;;;;;38.47;15.23;;;7.20;99.90;;;;;;5066537;28;20041;-60
2022/12/25 01:53:31;;;;;;;42.17;17.33;;;7.20;99.90;;;;;;5085950;28;20071;-61
2022/12/25 01:56:04;;;;;;;40.55;15.20;;;7.10;99.90;;;;;;5086852;28;20392;-62
2022/12/25 01:58:30;;;;;;;33.50;16.02;;;7.20;99.90;;;;;;5078732;28;20058;-62
2022/12/25 02:00:56;;;;;;;39.92;15.32;;;7.20;99.90;;;;;;5083913;28;20097;-61
2022/12/25 02:03:22;;;;;;;35.90;15.82;;;7.30;99.90;;;;;;5085654;28;20048;-62
2022/12/25 02:05:47;;;;;;;37.25;15.05;;;7.30;99.90;;;;;;5085975;28;20349;-61
2022/12/25 02:08:16;;;;;;;41.42;16.05;;;7.30;99.90;;;;;;5081834;28;20040;-59
2022/12/25 02:10:43;;;;;;;42.60;16.15;;;7.30;99.90;;;;;;5084259;28;20471;-63
2022/12/25 02:13:11;;;;;;;42.33;15.65;;;7.30;99.90;;;;;;5066859;28;20035;-62
2022/12/25 02:15:53;;;;;;;40.72;15.43;;;7.30;99.90;;;;;;5084932;28;20127;-60
2022/12/25 02:18:55;;;;;;;34.85;15.52;;;7.40;99.90;;;;;;5081744;28;20032;-62
2022/12/25 02:21:50;;;;;;;37.97;15.15;;;7.40;99.90;;;;;;5041008;28;20487;-61
2022/12/25 02:24:35;;;;;;;40.20;15.68;;;7.40;99.90;;;;;;5084383;28;20071;-60
2022/12/25 02:27:03;;;;;;;36.83;15.63;;;7.40;99.90;;;;;;5061697;28;20067;-61
2022/12/25 02:29:48;;;;;;;37.13;16.10;;;7.40;99.90;;;;;;5064518;28;20964;-61
2022/12/25 02:32:31;;;;;;;37.38;14.88;;;7.40;99.90;;;;;;5053402;28;20036;-60
2022/12/25 02:35:26;;;;;;;43.47;16.85;;;7.40;99.90;;;;;;5080347;28;20223;-62
2022/12/25 02:38:02;;;;;;;36.85;15.18;;;7.50;99.90;;;;;;5068935;28;20044;-62
2022/12/25 02:40:43;;;;;;;42.53;16.58;;;7.50;99.90;;;;;;5079353;28;20048;-61
2022/12/25 03:11:29;;;;;;;39.72;14.77;;;7.40;99.90;;;;;;5088277;28;20048;-61
2022/12/25 03:11:41;;;;;;;35.90;15.07;;;7.50;99.90;;;;;;5081655;28;20457;-60
2022/12/25 03:16:56;;;;;;;38.08;14.98;;;7.40;99.90;;;;;;5086052;28;20083;-62
2022/12/25 03:27:51;;;;;;;;;;;7.40;99.90;;;;;;5079403;28;20490;-61
2022/12/25 03:33:10;;;;;;;35.45;14.07;;;7.40;99.90;;;;;;5086082;28;20071;-62
2022/12/25 03:35:42;;;;;;;;;;;7.50;99.90;;;;;;5085118;28;20039;-62
2022/12/25 04:37:19;;;;;;;33.60;15.77;;;7.70;99.90;;;;;;5078661;28;20340;-62
2022/12/25 04:39:45;;;;;;;38.40;17.23;;;7.70;99.90;;;;;;5045961;28;20036;-62
2022/12/25 04:42:10;;;;;;;32.88;16.30;;;7.80;99.90;;;;;;5050772;28;20038;-62
2022/12/25 04:44:36;;;;;;;38.33;17.23;;;7.70;99.90;;;;;;5049966;28;20093;-61
2022/12/25 04:47:02;;;;;;;36.85;18.05;;;7.70;99.90;;;;;;5062784;28;20421;-61
2022/12/25 04:49:30;;;;;;;36.28;17.05;;;7.80;99.90;;;;;;5045867;28;20036;-60
2022/12/25 04:51:56;;;;;;;39.88;18.23;;;7.90;99.90;;;;;;5084462;28;20043;-59
2022/12/25 04:54:22;;;;;;;33.75;17.60;;;8.00;99.90;;;;;;5088682;28;20343;-60
2022/12/25 04:56:48;;;;;;;36.20;17.45;;;8.00;99.90;;;;;;5080488;28;20044;-63
2022/12/25 04:59:13;;;;;;;32.90;18.58;;;8.10;99.90;;;;;;5081151;28;20036;-61
2022/12/25 05:01:39;;;;;;;41.33;20.92;;;8.10;99.90;;;;;;5069012;28;20407;-61
2022/12/25 05:04:05;;;;;;;43.58;20.60;;;8.20;99.90;;;;;;5086627;28;20186;-62
2022/12/25 05:06:30;;;;;;;37.95;20.65;;;8.20;99.90;;;;;;5086280;28;20036;-61
2022/12/25 05:08:56;;;;;;;38.92;20.90;;;8.20;99.90;;;;;;5086161;28;20039;-61
2022/12/25 05:11:22;;;;;;;39.85;20.88;;;8.20;99.90;;;;;;5081118;28;20036;-62
2022/12/25 05:13:47;;;;;;;41.08;20.25;;;8.20;99.90;;;;;;5084905;28;20032;-63
2022/12/25 05:16:18;;;;;;;45.17;21.17;;;8.40;99.90;;;;;;5086665;28;20031;-62
2022/12/25 05:18:44;;;;;;;40.58;21.70;;;8.20;99.90;;;;;;5084774;28;20032;-61
2022/12/25 05:21:11;;;;;;;43.38;20.30;;;8.30;99.90;;;;;;5085756;28;20113;-63
2022/12/25 05:23:36;;;;;;;39.10;21.35;;;8.30;99.90;;;;;;5084783;28;20471;-61
2022/12/25 05:26:06;;;;;;;39.13;21.20;;;8.30;99.90;;;;;;5082929;28;20047;-61
2022/12/25 05:28:34;;;;;;;39.70;20.75;;;8.40;99.90;;;;;;5084184;28;20055;-61
2022/12/25 05:30:59;;;;;;;37.75;19.00;;;8.40;99.90;;;;;;5085314;28;20130;-61
2022/12/25 05:33:25;;;;;;;36.03;18.92;;;8.30;99.90;;;;;;5085508;28;20120;-62
2022/12/25 05:35:50;;;;;;;34.00;18.30;;;8.40;99.90;;;;;;5084925;28;20072;-62
2022/12/25 05:38:16;;;;;;;35.58;18.55;;;8.40;99.90;;;;;;5081685;28;20154;-62
2022/12/25 05:40:41;;;;;;;33.25;18.45;;;8.40;99.90;;;;;;5086559;28;20036;-62
2022/12/25 05:43:07;;;;;;;35.38;18.45;;;8.30;99.90;;;;;;5083293;28;20376;-60
2022/12/25 05:45:33;;;;;;;33.72;18.38;;;8.40;99.90;;;;;;5083965;28;20036;-60
2022/12/25 05:47:58;;;;;;;32.92;17.67;;;8.50;99.90;;;;;;5081013;28;20025;-60
2022/12/25 05:50:24;;;;;;;39.22;18.55;;;8.50;99.90;;;;;;5086004;28;20492;-61
2022/12/25 05:52:49;;;;;;;36.42;18.83;;;8.50;99.90;;;;;;5086676;28;20052;-61
2022/12/25 05:55:15;;;;;;;36.63;18.00;;;8.50;99.90;;;;;;5084705;28;20039;-62
2022/12/25 05:57:41;;;;;;;30.55;17.67;;;8.40;99.90;;;;;;5082248;28;20040;-64
2022/12/25 06:00:07;;;;;;;38.45;18.42;;;8.50;99.90;;;;;;5078251;28;20337;-61
2022/12/25 06:02:34;;;;;;;36.95;18.55;;;8.40;99.90;;;;;;5086052;28;20040;-58
2022/12/25 06:05:00;;;;;;;33.08;17.52;;;8.40;99.90;;;;;;5087061;28;20075;-59
2022/12/25 06:07:25;;;;;;;32.65;17.35;;;8.60;99.90;;;;;;5086161;28;20032;-63
2022/12/25 06:09:51;;;;;;;32.60;17.27;;;8.50;99.90;;;;;;5081537;28;20041;-63
2022/12/25 06:12:16;;;;;;;26.70;16.95;;;8.50;99.90;;;;;;5084006;28;20032;-63
2022/12/25 06:14:42;;;;;;;36.15;16.60;;;8.60;99.90;;;;;;5084315;28;20155;-61
2022/12/25 06:17:07;;;;;;;32.00;16.25;;;8.50;99.90;;;;;;5085548;28;20365;-62
2022/12/25 06:19:33;;;;;;;25.33;15.88;;;8.40;99.90;;;;;;5085200;28;20036;-62
2022/12/25 06:21:59;;;;;;;26.55;15.90;;;8.50;99.90;;;;;;5086475;28;20028;-61
2022/12/25 06:24:24;;;;;;;25.27;15.43;;;8.60;99.90;;;;;;5084423;28;20428;-61
2022/12/25 06:26:50;;;;;;;31.98;16.30;;;8.50;99.90;;;;;;5083521;28;20213;-60
2022/12/25 06:29:15;;;;;;;29.02;15.90;;;8.50;99.90;;;;;;5069361;28;20055;-60
2022/12/25 06:31:41;;;;;;;30.65;16.17;;;8.60;99.90;;;;;;5070656;28;20538;-61
2022/12/25 06:34:07;;;;;;;29.83;15.43;;;8.50;99.90;;;;;;5068892;28;20654;-61
2022/12/25 06:36:33;;;;;;;30.70;15.75;;;8.60;99.90;;;;;;5069747;28;20052;-61
2022/12/25 06:38:59;;;;;;;26.55;16.08;;;8.60;99.90;;;;;;5046718;28;20123;-62
2022/12/25 06:41:28;;;;;;;28.67;15.88;;;8.50;99.90;;;;;;5069477;28;20116;-61
2022/12/25 06:43:56;;;;;;;27.63;15.63;;;8.60;99.90;;;;;;5065205;28;20067;-61
2022/12/25 06:46:23;;;;;;;24.40;14.05;;;8.50;99.90;;;;;;5062676;28;20421;-61
2022/12/25 06:48:49;;;;;;;29.80;14.65;;;8.50;99.90;;;;;;5062520;28;20037;-61
2022/12/25 06:51:23;;;;;;;25.88;14.32;;;8.50;99.90;;;;;;5065329;28;20349;-61
2022/12/25 06:53:50;;;;;;;25.55;14.68;;;8.50;99.90;;;;;;5070884;28;20399;-60
2022/12/25 06:56:18;;;;;;;24.80;13.45;;;8.40;99.90;;;;;;5069095;28;20040;-60
2022/12/25 06:58:45;;;;;;;27.80;13.98;;;8.50;99.90;;;;;;5064552;28;20037;-61
2022/12/25 07:01:18;;;;;;;23.38;13.50;;;8.40;99.90;;;;;;5066623;28;20094;-61
2022/12/25 07:03:45;;;;;;;23.20;14.07;;;8.30;99.90;;;;;;5068177;28;20098;-62
2022/12/25 07:06:11;;;;;;;26.10;13.50;;;8.40;99.90;;;;;;5071272;28;20039;-62
2022/12/25 07:08:37;;;;;;;24.27;12.40;;;8.40;99.90;;;;;;5068491;28;20032;-61
2022/12/25 07:11:02;;;;;;;21.55;11.98;;;8.50;99.90;;;;;;5067667;28;20036;-60
2022/12/25 07:13:28;;;;;;;23.85;12.82;;;8.40;99.90;;;;;;5049576;28;20037;-62
2022/12/25 07:15:58;;;;;;;22.70;11.85;;;8.50;99.90;;;;;;5066338;28;20037;-60
2022/12/25 07:18:25;;;;;;;20.77;11.85;;;8.40;99.90;;;;;;5069849;28;20040;-60
2022/12/25 07:20:50;;;;;;;22.10;11.75;;;8.50;99.90;;;;;;5072351;28;20041;-60
2022/12/25 07:23:16;;;;;;;21.75;11.23;;;8.40;99.90;;;;;;5073540;28;20036;-61
2022/12/25 07:25:41;;;;;;;18.10;10.73;;;8.40;99.90;;;;;;5055927;28;20037;-62
2022/12/25 07:28:07;;;;;;;22.30;12.63;;;8.50;99.90;;;;;;5074722;28;20111;-61
2022/12/25 07:30:32;;;;;;;20.30;10.88;;;8.50;99.90;;;;;;5092504;28;20051;-61
2022/12/25 07:32:58;;;;;;;20.60;11.38;;;8.50;99.90;;;;;;5076154;28;20048;-61
2022/12/25 07:35:24;;;;;;;19.48;11.05;;;8.40;99.90;;;;;;5091489;28;20044;-62
2022/12/25 07:37:49;;;;;;;19.27;11.43;;;8.40;99.90;;;;;;5089970;28;20403;-62
2022/12/25 07:40:15;;;;;;;20.73;11.05;;;8.60;99.90;;;;;;5083339;28;20082;-61
2022/12/25 07:42:40;;;;;;;17.45;10.15;;;8.60;99.90;;;;;;5073854;28;20045;-62
2022/12/25 07:45:06;;;;;;;21.00;10.32;;;8.50;99.90;;;;;;5091653;28;20056;-62
2022/12/25 07:47:32;;;;;;;18.38;10.65;;;8.50;99.90;;;;;;5090850;28;20470;-61
2022/12/25 07:49:58;;;;;;;17.70;10.27;;;8.50;99.90;;;;;;5086313;28;20121;-59
2022/12/25 07:52:23;;;;;;;19.48;10.52;;;8.50;99.90;;;;;;5089336;28;20024;-62
2022/12/25 07:54:49;;;;;;;17.40;9.57;;;8.50;99.90;;;;;;5088517;28;20051;-63
2022/12/25 07:57:15;;;;;;;16.45;10.57;;;8.50;99.90;;;;;;5085589;28;20032;-62
2022/12/25 07:59:40;;;;;;;18.95;10.65;;;8.50;99.90;;;;;;5085085;28;20388;-61
2022/12/25 08:02:06;;;;;;;18.70;11.00;;;8.60;99.90;;;;;;5085000;28;20479;-61
2022/12/25 08:04:31;;;;;;;17.83;11.45;;;8.60;99.90;;;;;;5068351;28;20042;-62
2022/12/25 08:06:57;;;;;;;19.67;10.30;;;8.50;99.90;;;;;;5087398;28;20046;-62
2022/12/25 08:09:22;;;;;;;14.77;10.05;;;8.50;99.90;;;;;;5083883;28;20120;-62
2022/12/25 08:11:48;;;;;;;16.85;9.73;;;8.50;99.90;;;;;;5087163;28;20041;-62
2022/12/25 08:14:14;;;;;;;16.23;9.30;;;8.60;99.90;;;;;;5084598;28;20059;-62
2022/12/25 08:16:40;;;;;;;20.90;10.05;;;8.60;99.90;;;;;;5084917;28;20062;-62
2022/12/25 08:19:07;;;;;;;17.10;9.50;;;8.60;99.90;;;;;;5083979;28;20373;-62
2022/12/25 08:21:33;;;;;;;18.88;10.05;;;8.60;99.90;;;;;;5087245;28;20043;-61
2022/12/25 08:23:58;;;;;;;16.25;10.10;;;8.60;99.90;;;;;;5069109;28;20128;-60
2022/12/25 08:26:24;;;;;;;14.77;8.95;;;8.60;99.90;;;;;;5087045;28;20111;-61
2022/12/25 08:28:50;;;;;;;19.38;9.73;;;8.60;99.90;;;;;;5084331;28;20060;-61
2022/12/25 08:31:20;;;;;;;20.05;9.75;;;8.50;99.90;;;;;;5088914;28;20047;-62
2022/12/25 08:33:47;;;;;;;17.48;9.40;;;8.50;99.90;;;;;;5086939;28;20028;-62
2022/12/25 08:36:14;;;;;;;17.75;9.23;;;8.50;99.90;;;;;;5088559;28;20054;-62
2022/12/25 08:38:40;;;;;;;19.35;10.70;;;8.50;99.90;;;;;;5083237;28;20028;-61
2022/12/25 08:41:08;;;;;;;17.02;10.05;;;8.60;99.90;;;;;;5086051;28;20036;-62
2022/12/25 08:43:34;;;;;;;16.83;9.68;;;8.60;99.90;;;;;;5084904;28;20035;-60
2022/12/25 08:45:59;;;;;;;15.95;9.38;;;8.60;99.90;;;;;;5081707;28;20058;-60
2022/12/25 08:48:25;;;;;;;16.85;9.27;;;8.60;99.90;;;;;;5082980;28;20306;-59
2022/12/25 08:50:52;;;;;;;20.02;9.65;;;8.60;99.90;;;;;;5067648;28;20597;-61
2022/12/25 08:53:19;;;;;;;19.33;10.38;;;8.60;99.90;;;;;;5088512;28;20051;-62
2022/12/25 08:55:45;;;;;;;14.05;8.85;;;8.50;99.90;;;;;;5084987;28;20067;-61
2022/12/25 08:58:11;;;;;;;21.25;10.27;;;8.60;99.90;;;;;;5083735;28;20067;-62
2022/12/25 09:00:37;;;;;;;17.40;9.10;;;8.50;99.90;;;;;;5084473;28;20040;-61
2022/12/25 09:03:03;;;;;;;18.52;9.18;;;8.60;99.90;;;;;;5085338;28;20434;-59
2022/12/25 09:05:28;;;;;;;15.40;8.50;;;8.60;99.90;;;;;;5086233;28;20047;-60
2022/12/25 09:07:54;;;;;;;14.55;9.50;;;8.70;99.90;;;;;;5088343;28;20368;-61
2022/12/25 09:10:20;;;;;;;102.90;55.85;;;8.60;99.90;;;;;;5088570;28;20359;-61
2022/12/25 09:12:45;;;;;;;53.15;30.13;;;8.60;99.90;;;;;;5087200;28;20468;-60
2022/12/25 09:15:11;;;;;;;21.98;12.50;;;8.60;99.90;;;;;;5088664;28;20105;-63
2022/12/25 09:17:37;;;;;;;20.17;12.40;;;8.60;99.90;;;;;;5084612;28;20114;-61
2022/12/25 09:20:03;;;;;;;20.27;11.65;;;8.50;99.90;;;;;;5082939;28;20101;-62
2022/12/25 09:22:29;;;;;;;18.98;11.57;;;8.50;99.90;;;;;;5086946;28;20081;-61
2022/12/25 09:24:54;;;;;;;33.30;22.17;;;8.70;99.90;;;;;;5086604;28;20052;-59
2022/12/25 09:27:20;;;;;;;24.70;16.48;;;8.70;99.90;;;;;;5091481;28;20048;-58
2022/12/25 09:29:46;;;;;;;16.00;10.20;;;8.60;99.90;;;;;;5081738;28;20035;-60
2022/12/25 09:32:11;;;;;;;18.95;9.35;;;8.60;99.90;;;;;;5084513;28;20034;-63
2022/12/25 09:34:38;;;;;;;19.08;9.25;;;8.70;99.90;;;;;;5086040;28;20482;-59
2022/12/25 09:37:03;;;;;;;18.67;10.10;;;8.80;99.90;;;;;;5085939;28;20040;-61
2022/12/25 09:39:29;;;;;;;16.00;9.63;;;8.70;99.90;;;;;;5080919;28;20054;-60
2022/12/25 09:41:58;;;;;;;13.32;8.70;;;8.80;99.90;;;;;;5083746;28;20044;-59
2022/12/25 09:44:35;;;;;;;16.67;9.05;;;8.80;99.90;;;;;;5082359;28;20055;-61
2022/12/25 09:47:09;;;;;;;14.63;9.07;;;8.80;99.90;;;;;;5078686;28;20515;-58
2022/12/25 09:49:37;;;;;;;14.70;10.25;;;8.80;99.90;;;;;;5084562;28;20027;-60
2022/12/25 09:52:15;;;;;;;14.82;9.30;;;8.80;99.90;;;;;;5089228;28;20035;-59
2022/12/25 09:54:45;;;;;;;19.05;10.32;;;8.80;99.90;;;;;;5082259;28;20131;-59
2022/12/25 09:57:13;;;;;;;18.00;10.60;;;8.80;99.90;;;;;;5085470;28;20052;-60
2022/12/25 09:59:41;;;;;;;16.27;9.75;;;8.80;99.90;;;;;;5083011;28;20503;-60
2022/12/25 10:02:46;;;;;;;16.33;9.40;;;8.80;99.90;;;;;;5083536;28;20051;-58
2022/12/25 10:05:44;;;;;;;15.40;9.02;;;8.80;99.90;;;;;;5084804;28;20623;-60
2022/12/25 10:08:15;;;;;;;14.13;8.48;;;8.80;99.90;;;;;;5083021;28;20040;-58
2022/12/25 10:11:27;;;;;;;16.85;8.68;;;8.80;99.90;;;;;;5083780;28;20036;-59
2022/12/25 10:14:13;;;;;;;11.85;8.45;;;8.70;99.90;;;;;;5087017;28;20040;-59
2022/12/25 10:17:04;;;;;;;17.58;9.85;;;8.80;99.90;;;;;;5084945;28;20032;-57
2022/12/25 10:19:42;;;;;;;20.70;8.75;;;8.90;99.90;;;;;;5083807;28;20043;-59
2022/12/25 10:22:18;;;;;;;14.88;8.82;;;8.90;99.90;;;;;;5070543;28;20540;-57
2022/12/25 10:24:50;;;;;;;15.45;8.73;;;8.90;99.90;;;;;;5090014;28;20055;-59
2022/12/25 10:27:38;;;;;;;12.75;8.18;;;8.80;99.90;;;;;;5068519;28;20053;-57
2022/12/25 10:30:15;;;;;;;12.48;7.63;;;8.90;99.90;;;;;;5083608;28;20045;-57
2022/12/25 10:32:45;;;;;;;11.95;8.00;;;9.00;99.90;;;;;;5067661;28;20044;-60
2022/12/25 10:35:12;;;;;;;13.15;7.90;;;9.00;99.90;;;;;;5084923;28;20059;-57
2022/12/25 10:37:40;;;;;;;16.98;8.82;;;9.00;99.90;;;;;;5085575;28;20048;-56
2022/12/25 10:40:44;;;;;;;12.00;7.95;;;9.10;99.90;;;;;;5085529;28;20055;-57
2022/12/25 10:43:14;;;;;;;14.40;7.78;;;9.20;99.90;;;;;;5087125;28;20048;-54
2022/12/25 10:45:47;;;;;;;14.45;8.00;;;9.20;99.90;;;;;;5082385;28;20448;-56
2022/12/25 10:48:32;;;;;;;15.43;8.50;;;9.20;99.90;;;;;;5079384;28;20040;-59
2022/12/25 10:50:57;;;;;;;14.00;7.10;;;9.20;99.90;;;;;;5082924;28;20029;-58
2022/12/25 10:53:25;;;;;;;12.38;7.35;;;9.30;99.90;;;;;;5083685;28;20047;-57
2022/12/25 10:56:03;;;;;;;15.38;9.07;;;9.30;99.90;;;;;;5085550;28;20144;-60
2022/12/25 10:58:30;;;;;;;15.88;10.05;;;9.30;99.90;;;;;;5083086;28;20044;-57
2022/12/25 11:01:00;;;;;;;19.58;10.98;;;9.30;99.90;;;;;;5080829;28;20079;-58
2022/12/25 11:03:30;;;;;;;17.38;10.32;;;9.20;99.90;;;;;;5083431;28;20097;-61
2022/12/25 11:05:56;;;;;;;16.65;10.85;;;9.30;99.90;;;;;;5080440;28;20333;-59
2022/12/25 11:08:24;;;;;;;17.67;9.38;;;9.20;99.90;;;;;;5081502;28;20047;-60
2022/12/25 11:10:58;;;;;;;16.40;8.90;;;9.30;99.90;;;;;;5065158;28;20314;-60
2022/12/25 11:13:28;;;;;;;13.68;8.68;;;9.20;99.90;;;;;;5082026;28;20071;-58
2022/12/25 11:16:10;;;;;;;14.75;8.20;;;9.30;99.90;;;;;;5089409;28;20035;-59
2022/12/25 11:18:48;;;;;;;10.68;7.57;;;9.30;99.90;;;;;;5087110;28;20097;-58
2022/12/25 11:21:35;;;;;;;16.27;7.80;;;9.30;99.90;;;;;;5087683;28;20028;-61
2022/12/25 11:24:15;;;;;;;13.18;7.60;;;9.20;99.90;;;;;;5083581;28;20052;-58
2022/12/25 11:26:48;;;;;;;16.63;7.80;;;9.40;99.90;;;;;;5087778;28;20040;-61
2022/12/25 11:29:43;;;;;;;15.25;7.72;;;9.40;99.90;;;;;;5081156;28;20460;-60
2022/12/25 11:32:21;;;;;;;13.45;7.82;;;9.40;99.90;;;;;;5070139;28;20119;-59
2022/12/25 11:34:48;;;;;;;13.45;7.55;;;9.40;99.90;;;;;;5074918;28;20384;-59
2022/12/25 11:37:20;;;;;;;9.15;6.90;;;9.40;99.90;;;;;;5087489;28;20051;-61
2022/12/25 11:39:45;;;;;;;12.98;7.47;;;9.40;99.90;;;;;;5080402;28;20079;-59
2022/12/25 11:42:25;;;;;;;13.07;6.93;;;9.40;99.90;;;;;;5087985;28;20437;-62
2022/12/25 11:45:06;;;;;;;13.40;6.88;;;9.50;99.90;;;;;;5088868;28;20040;-60
2022/12/25 11:47:47;;;;;;;12.57;7.13;;;9.40;99.90;;;;;;5069986;28;20456;-61
2022/12/25 11:50:32;;;;;;;11.75;7.32;;;9.50;99.90;;;;;;5085658;28;20085;-61
2022/12/25 11:53:29;;;;;;;12.77;6.30;;;9.40;99.90;;;;;;5086614;28;20347;-58
2022/12/25 11:56:00;;;;;;;11.48;6.60;;;9.50;99.90;;;;;;5061906;28;20372;-60
2022/12/25 11:58:34;;;;;;;16.05;8.65;;;9.50;99.90;;;;;;5081364;28;20399;-61
2022/12/25 12:01:07;;;;;;;11.82;6.45;;;9.60;99.90;;;;;;5067846;28;20349;-57
2022/12/25 12:03:39;;;;;;;10.80;6.53;;;9.70;99.90;;;;;;5084622;28;20044;-58
2022/12/25 12:06:42;;;;;;;13.90;7.35;;;9.60;99.90;;;;;;5045050;28;20116;-58
2022/12/25 12:09:35;;;;;;;12.68;6.50;;;9.90;99.90;;;;;;5049741;28;20035;-60
2022/12/25 12:12:32;;;;;;;;;;;;;;;;;;;;;
2022/12/25 12:15:28;;;;;;;48.90;30.15;;;9.90;99.90;;;;;;5073732;28;20045;-61
2022/12/25 12:18:20;;;;;;;23.42;8.65;;;9.70;99.90;;;;;;5087565;28;20070;-62
2022/12/25 12:21:01;;;;;;;23.80;8.93;;;9.80;99.90;;;;;;5044158;28;20039;-61
2022/12/25 12:23:58;;;;;;;20.20;7.70;;;9.90;99.90;;;;;;5083174;28;20103;-60
2022/12/25 12:26:36;;;;;;;13.60;7.63;;;10.00;99.90;;;;;;5075134;28;20418;-62
2022/12/25 12:29:05;;;;;;;10.88;6.70;;;10.00;99.90;;;;;;5084979;28;20048;-61
2022/12/25 12:31:46;;;;;;;13.15;7.60;;;10.00;99.90;;;;;;5089715;28;20043;-61
2022/12/25 12:34:23;;;;;;;11.00;7.13;;;9.90;99.90;;;;;;5087462;28;20120;-60
2022/12/25 12:36:51;;;;;;;11.55;7.03;;;10.00;99.90;;;;;;5088013;28;20036;-61
2022/12/25 12:39:35;;;;;;;12.77;7.35;;;9.90;99.90;;;;;;5082054;28;20487;-59
2022/12/25 12:42:01;;;;;;;11.98;7.10;;;10.00;99.90;;;;;;5085657;28;20086;-60
2022/12/25 12:44:33;;;;;;;11.88;7.53;;;10.10;99.90;;;;;;5088189;28;20455;-59
2022/12/25 12:46:59;;;;;;;14.90;7.60;;;9.90;99.90;;;;;;5082365;28;20466;-61
2022/12/25 12:49:24;;;;;;;13.73;8.43;;;10.20;99.90;;;;;;5082042;28;20082;-61
2022/12/25 12:52:19;;;;;;;12.18;7.82;;;10.10;99.90;;;;;;5086649;28;20097;-63
2022/12/25 12:55:06;;;;;;;13.10;9.18;;;10.00;99.90;;;;;;5083840;28;20429;-62
2022/12/25 12:57:38;;;;;;;14.32;8.82;;;10.00;99.90;;;;;;5084724;28;20069;-62
2022/12/25 13:00:18;;;;;;;13.95;8.80;;;10.00;99.90;;;;;;5088153;28;20040;-61
2022/12/25 13:03:25;;;;;;;12.52;8.23;;;9.90;99.90;;;;;;5084850;28;20093;-61
2022/12/25 13:06:14;;;;;;;15.30;8.35;;;9.90;99.90;;;;;;5029197;28;20470;-62
2022/12/25 13:09:12;;;;;;;17.52;10.40;;;9.90;99.90;;;;;;5082074;28;20036;-61
2022/12/25 13:11:42;;;;;;;29.48;25.23;;;9.90;99.90;;;;;;5083100;28;20562;-60
2022/12/25 13:14:17;;;;;;;20.55;14.85;;;10.00;99.90;;;;;;5069812;28;20477;-61
2022/12/25 13:16:45;;;;;;;21.15;13.13;;;9.80;99.90;;;;;;5086583;28;20107;-62
2022/12/25 13:19:22;;;;;;;20.38;15.18;;;9.80;99.90;;;;;;5080760;28;20122;-63
2022/12/25 13:21:59;;;;;;;17.58;12.65;;;9.90;99.90;;;;;;5086397;28;20362;-62
2022/12/25 13:24:30;;;;;;;24.02;15.88;;;9.80;99.90;;;;;;5083476;28;20048;-62
2022/12/25 13:26:57;;;;;;;20.55;14.40;;;9.90;99.90;;;;;;5079803;28;20032;-62
2022/12/25 13:29:31;;;;;;;20.73;14.27;;;9.90;99.90;;;;;;5083487;28;20424;-62
2022/12/25 13:31:58;;;;;;;15.38;10.55;;;9.90;99.90;;;;;;5081051;28;20048;-62
2022/12/25 13:34:31;;;;;;;19.50;12.77;;;9.80;99.90;;;;;;5087579;28;20357;-61
2022/12/25 13:36:59;;;;;;;20.42;14.00;;;9.80;99.90;;;;;;5063502;28;20047;-63
2022/12/25 13:39:25;;;;;;;14.52;10.88;;;9.90;99.90;;;;;;5062260;28;20566;-60
2022/12/25 13:42:04;;;;;;;20.80;12.95;;;9.70;99.90;;;;;;5084125;28;20048;-62
2022/12/25 13:44:44;;;;;;;18.88;10.43;;;9.80;99.90;;;;;;5068900;28;20499;-62
2022/12/25 13:47:23;;;;;;;16.35;11.27;;;9.80;99.90;;;;;;5066377;28;20119;-62
2022/12/25 13:49:50;;;;;;;15.95;11.55;;;9.70;99.90;;;;;;5065281;28;20042;-61
2022/12/25 13:52:32;;;;;;;17.27;11.48;;;9.50;99.90;;;;;;5063950;28;20077;-61
2022/12/25 13:55:09;;;;;;;18.27;12.13;;;9.60;99.90;;;;;;5086876;28;20380;-62
2022/12/25 13:57:41;;;;;;;20.67;14.88;;;9.40;99.90;;;;;;5090565;28;20040;-61
2022/12/25 14:00:23;;;;;;;17.92;13.73;;;9.40;99.90;;;;;;5066564;28;20080;-60
2022/12/25 14:02:49;;;;;;;16.58;14.00;;;9.40;99.90;;;;;;5083059;28;20055;-61
2022/12/25 14:05:24;;;;;;;16.77;14.05;;;9.40;99.90;;;;;;5081591;28;20075;-59
2022/12/25 14:07:53;;;;;;;;;;;9.30;99.90;;;;;;5086511;28;20051;-60
2022/12/25 14:10:20;;;;;;;18.67;13.88;;;9.30;99.90;;;;;;5080543;28;19920;-59
2022/12/25 14:12:50;;;;;;;19.67;15.40;;;9.20;99.90;;;;;;5067962;28;20317;-59
2022/12/25 14:15:20;;;;;;;24.58;18.05;;;9.20;99.90;;;;;;5086083;28;20039;-60
2022/12/25 14:17:47;;;;;;;22.73;16.50;;;9.20;99.90;;;;;;5086801;28;20043;-59
2022/12/25 14:20:25;;;;;;;23.33;19.15;;;9.30;99.90;;;;;;5082315;28;20104;-61
2022/12/25 14:22:53;;;;;;;24.48;20.67;;;9.20;99.90;;;;;;5066850;28;20083;-61
2022/12/25 14:25:20;;;;;;;26.20;17.73;;;9.30;99.90;;;;;;5084461;28;20044;-62
2022/12/25 14:27:50;;;;;;;25.10;21.10;;;9.30;99.90;;;;;;5068443;28;20434;-58
2022/12/25 14:30:17;;;;;;;30.63;21.73;;;9.30;99.90;;;;;;5086549;28;20035;-61
2022/12/25 14:32:46;;;;;;;27.50;20.27;;;9.30;99.90;;;;;;5071670;28;20346;-61
2022/12/25 14:35:12;;;;;;;22.80;17.15;;;9.20;99.90;;;;;;5088874;28;20054;-60
2022/12/25 14:37:40;;;;;;;21.45;17.00;;;9.30;99.90;;;;;;5083938;28;20076;-59
2022/12/25 14:40:31;;;;;;;18.38;15.65;;;9.30;99.90;;;;;;5087066;28;20047;-60
2022/12/25 14:43:03;;;;;;;19.27;15.90;;;9.20;99.90;;;;;;5080387;28;20049;-59